createdAt,value
2022-12-25T00:08:18.308Z,9.00
2022-12-25T00:13:20.189Z,8.98
2022-12-25T00:18:24.064Z,9.07
2022-12-25T00:23:26.488Z,8.92
2022-12-25T00:28:32.875Z,9.26
2022-12-25T00:33:39.922Z,9.26
2022-12-25T00:56:42.252Z,9.03
2022-12-25T01:01:59.736Z,9.14
2022-12-25T01:07:50.237Z,8.86
2022-12-25T01:18:51.369Z,8.78
2022-12-25T01:23:54.055Z,9.02
2022-12-25T01:28:57.215Z,8.70
2022-12-25T01:33:58.981Z,8.74
2022-12-25T01:39:00.896Z,8.67
2022-12-25T01:44:07.233Z,9.08
2022-12-25T01:49:12.728Z,8.78
2022-12-25T01:54:18.001Z,8.93
2022-12-25T01:59:24.313Z,8.74
2022-12-25T02:04:30.172Z,8.96
2022-12-25T02:09:32.587Z,9.28
2022-12-25T02:14:37.510Z,9.21
2022-12-25T02:20:12.062Z,9.12
2022-12-25T02:25:33.154Z,9.27
2022-12-25T02:31:05.047Z,9.25
2022-12-25T02:36:16.200Z,9.01
2022-12-25T02:41:27.885Z,9.66
2022-12-25T02:46:33.634Z,9.19
2022-12-25T02:51:40.328Z,9.23
2022-12-25T02:56:46.903Z,9.28
2022-12-25T03:01:51.147Z,9.46
2022-12-25T03:07:02.667Z,9.00
2022-12-25T03:12:13.507Z,9.49
2022-12-25T03:17:17.140Z,10.27
2022-12-25T03:22:24.952Z,10.18
2022-12-25T03:27:29.741Z,9.53
2022-12-25T03:32:40.223Z,9.32
2022-12-25T03:37:50.679Z,9.69
2022-12-25T03:42:58.950Z,9.49
2022-12-25T03:48:05.308Z,9.60
2022-12-25T03:53:12.711Z,9.46
2022-12-25T03:58:19.219Z,9.17
2022-12-25T04:03:22.593Z,8.97
2022-12-25T04:08:24.464Z,9.14
2022-12-25T04:13:26.317Z,9.39
2022-12-25T04:18:29.585Z,9.59
2022-12-25T04:28:51.321Z,9.68
2022-12-25T04:33:58.829Z,9.74
2022-12-25T04:39:00.498Z,9.70
2022-12-25T04:44:02.375Z,9.28
2022-12-25T04:49:05.785Z,8.85
2022-12-25T04:54:07.493Z,8.43
2022-12-25T04:59:09.330Z,9.04
2022-12-25T05:04:12.737Z,9.13
2022-12-25T05:09:14.388Z,9.37
2022-12-25T05:14:16.234Z,9.15
2022-12-25T05:19:19.532Z,9.64
2022-12-25T05:24:26.017Z,9.52
2022-12-25T05:29:27.981Z,9.60
2022-12-25T05:34:31.410Z,9.83
2022-12-25T05:45:57.184Z,10.38
2022-12-25T05:51:34.547Z,10.41
2022-12-25T05:56:55.213Z,9.89
2022-12-25T06:02:29.563Z,9.92
2022-12-25T06:07:55.793Z,10.23
2022-12-25T06:13:28.656Z,10.29
2022-12-25T06:24:21.495Z,10.19
2022-12-25T07:04:37.942Z,9.36
2022-12-25T07:10:23.739Z,10.63
2022-12-25T07:22:09.137Z,10.43
2022-12-25T07:45:17.569Z,10.31
2022-12-25T07:50:44.695Z,9.82
2022-12-25T07:55:47.776Z,9.61
2022-12-25T08:00:49.449Z,9.28
2022-12-25T08:05:51.075Z,10.02
2022-12-25T08:10:54.361Z,9.09
2022-12-25T08:15:57.226Z,9.94
2022-12-25T08:21:03.712Z,10.17
2022-12-25T08:26:08.520Z,10.12
2022-12-25T08:31:14.272Z,9.12
2022-12-25T08:36:17.180Z,9.26
2022-12-25T08:41:23.170Z,10.20
2022-12-25T08:46:25.469Z,9.72
2022-12-25T08:51:27.304Z,10.53
2022-12-25T08:56:30.778Z,10.43
2022-12-25T09:01:32.408Z,11.10
2022-12-25T09:06:34.261Z,10.17
2022-12-25T09:11:37.315Z,9.94
2022-12-25T09:16:39.074Z,9.16
2022-12-25T09:21:41.080Z,10.02
2022-12-25T09:26:44.692Z,9.28
2022-12-25T09:31:46.509Z,10.23
2022-12-25T09:36:48.480Z,9.77
2022-12-25T09:41:56.277Z,9.68
2022-12-25T09:47:01.461Z,11.02
2022-12-25T09:52:08.767Z,11.28
2022-12-25T09:57:14.913Z,9.85
2022-12-25T10:02:52.605Z,9.49
2022-12-25T10:08:02.464Z,10.73
2022-12-25T10:13:16.681Z,10.75
2022-12-25T10:18:47.266Z,10.26
2022-12-25T10:23:55.519Z,10.33
2022-12-25T10:29:04.341Z,9.01
2022-12-25T10:34:07.095Z,9.70
2022-12-25T10:39:12.547Z,9.49
2022-12-25T10:44:17.783Z,9.42
2022-12-25T10:49:22.152Z,9.41
2022-12-25T10:54:26.366Z,9.22
2022-12-25T10:59:34.436Z,9.37
2022-12-25T11:04:36.534Z,9.43
2022-12-25T11:09:38.194Z,10.35
2022-12-25T11:14:53.586Z,10.75
2022-12-25T11:19:57.221Z,9.68
2022-12-25T11:25:11.866Z,10.53
2022-12-25T11:30:19.380Z,10.37
2022-12-25T11:35:24.269Z,9.44
2022-12-25T11:40:28.934Z,10.28
2022-12-25T11:45:37.211Z,10.01
2022-12-25T11:50:43.466Z,10.17
2022-12-25T11:55:49.356Z,10.27
2022-12-25T12:00:55.187Z,10.40
2022-12-25T12:05:59.805Z,10.96
2022-12-25T12:11:12.639Z,11.11
2022-12-25T12:16:15.865Z,10.75
2022-12-25T12:21:22.425Z,11.30
2022-12-25T12:26:27.536Z,11.01
2022-12-25T12:31:39.271Z,11.02
2022-12-25T12:36:41.252Z,10.95
2022-12-25T12:41:48.445Z,11.15
2022-12-25T12:46:53.537Z,10.36
2022-12-25T12:52:06.990Z,10.16
2022-12-25T12:57:23.177Z,10.74
2022-12-25T13:02:58.241Z,10.49
2022-12-25T13:08:07.877Z,10.71
2022-12-25T13:13:16.962Z,10.57
2022-12-25T13:18:20.938Z,10.17
2022-12-25T13:23:25.709Z,10.15
2022-12-25T13:28:28.652Z,10.46
2022-12-25T13:33:32.099Z,10.63
2022-12-25T13:38:34.453Z,10.34
2022-12-25T13:43:36.517Z,10.65
2022-12-25T13:48:39.852Z,10.26
2022-12-25T13:53:42.013Z,10.42
2022-12-25T13:58:47.499Z,10.53
2022-12-25T14:03:50.739Z,10.62
2022-12-25T14:08:54.603Z,10.19
2022-12-25T14:14:00.117Z,9.98
2022-12-25T14:19:03.547Z,10.42
2022-12-25T14:24:13.564Z,10.01
2022-12-25T14:29:19.140Z,10.17
2022-12-25T14:34:27.918Z,10.07
2022-12-25T14:39:35.462Z,9.99
2022-12-25T14:44:38.935Z,9.79
2022-12-25T14:49:42.991Z,10.15
2022-12-25T14:54:47.245Z,9.79
2022-12-25T14:59:56.573Z,9.41
2022-12-25T15:04:59.685Z,9.87
2022-12-25T15:15:23.590Z,10.09
2022-12-25T15:20:30.831Z,10.08
2022-12-25T15:25:32.482Z,9.90
2022-12-25T15:30:36.525Z,9.61
2022-12-25T15:35:39.511Z,9.56
2022-12-25T15:40:42.491Z,9.54
2022-12-25T15:45:44.304Z,9.48
2022-12-25T15:50:47.492Z,10.27
2022-12-25T15:55:49.495Z,9.91
2022-12-25T16:00:51.186Z,9.90
2022-12-25T16:05:54.427Z,10.49
2022-12-25T16:10:56.274Z,10.33
2022-12-25T16:15:57.954Z,10.23
2022-12-25T16:21:01.329Z,10.53
2022-12-25T16:26:02.983Z,10.59
2022-12-25T16:31:04.887Z,10.73
2022-12-25T16:36:08.852Z,10.96
2022-12-25T16:41:10.488Z,10.77
2022-12-25T16:46:13.905Z,10.35
2022-12-25T16:51:19.178Z,10.68
2022-12-25T16:56:21.227Z,10.82
2022-12-25T17:01:24.277Z,10.50
2022-12-25T17:06:28.278Z,10.53
2022-12-25T17:11:30.465Z,10.51
2022-12-25T17:16:34.267Z,10.54
2022-12-25T17:21:37.571Z,10.66
2022-12-25T17:26:39.651Z,10.58
2022-12-25T17:31:41.492Z,10.30
2022-12-25T17:36:44.588Z,10.70
2022-12-25T17:41:46.300Z,10.32
2022-12-25T17:46:48.820Z,10.69
2022-12-25T17:51:53.956Z,10.58
2022-12-25T17:56:55.684Z,10.36
2022-12-25T18:01:57.627Z,10.78
2022-12-25T18:07:00.939Z,10.99
2022-12-25T18:12:02.563Z,10.95
2022-12-25T18:17:04.172Z,10.83
2022-12-25T18:22:08.733Z,10.48
2022-12-25T18:27:19.274Z,10.36
2022-12-25T18:32:27.763Z,10.53
2022-12-25T18:37:39.423Z,10.74
2022-12-25T18:42:42.021Z,10.88
2022-12-25T18:47:43.815Z,10.55
2022-12-25T18:52:51.663Z,10.44
2022-12-25T18:57:54.097Z,10.55
2022-12-25T19:02:56.648Z,10.80
2022-12-25T19:08:00.391Z,10.63
2022-12-25T19:13:02.439Z,10.66
2022-12-25T19:18:04.281Z,10.50
2022-12-25T19:23:07.826Z,10.60
2022-12-25T19:28:09.694Z,10.97
2022-12-25T19:33:17.472Z,10.78
2022-12-25T19:38:21.194Z,10.53
2022-12-25T19:43:23.004Z,10.49
2022-12-25T19:48:25.173Z,10.74
2022-12-25T19:53:29.809Z,10.64
2022-12-25T19:58:31.494Z,10.24
2022-12-25T20:03:33.612Z,10.57
2022-12-25T20:08:36.900Z,10.20
2022-12-25T20:13:38.521Z,10.10
2022-12-25T20:18:40.447Z,10.25
2022-12-25T20:23:44.786Z,10.00
2022-12-25T20:28:46.515Z,9.88
2022-12-25T20:33:48.313Z,9.85
2022-12-25T20:38:51.421Z,9.73
2022-12-25T20:43:53.271Z,9.92
2022-12-25T20:48:55.340Z,9.87
2022-12-25T20:53:58.436Z,9.97
2022-12-25T20:59:01.005Z,10.06
2022-12-25T21:04:02.835Z,9.93
2022-12-25T21:09:06.309Z,9.66
2022-12-25T21:14:08.229Z,9.92
2022-12-25T21:19:09.979Z,9.93
2022-12-25T21:24:13.052Z,9.83
2022-12-25T21:29:14.884Z,9.94
2022-12-25T21:34:16.607Z,10.13
2022-12-25T21:39:19.635Z,10.50
2022-12-25T21:44:21.254Z,10.25
2022-12-25T21:49:23.117Z,10.14
2022-12-25T21:54:26.549Z,10.29
2022-12-25T21:59:28.311Z,10.08
2022-12-25T22:04:29.929Z,9.93
2022-12-25T22:09:33.230Z,9.88
2022-12-25T22:14:52.804Z,9.92
2022-12-25T22:19:55.615Z,9.74
2022-12-25T22:25:00.582Z,9.77
2022-12-25T22:30:02.645Z,10.04
2022-12-25T22:35:05.046Z,10.35
2022-12-25T22:40:10.990Z,10.23
2022-12-25T22:45:13.002Z,10.00
2022-12-25T22:50:16.284Z,9.97
2022-12-25T22:55:19.490Z,9.83
2022-12-25T23:00:21.530Z,9.90
2022-12-25T23:05:23.142Z,9.79
2022-12-25T23:10:28.249Z,9.94
2022-12-25T23:15:29.879Z,9.80
2022-12-25T23:20:32.681Z,9.74
2022-12-25T23:25:35.766Z,9.98
2022-12-25T23:30:37.681Z,9.79
2022-12-25T23:35:39.623Z,9.79
2022-12-25T23:40:42.765Z,9.83
2022-12-25T23:45:44.570Z,9.88
2022-12-25T23:50:46.429Z,9.73
2022-12-25T23:55:55.397Z,9.92
